Time;durP1;ratioP1;P1;durP2;ratioP2;P2;SDS_P1;SDS_P2;PMS_P1;PMS_P2;Temp;Humidity;BMP_temperature;BMP_pressure;BME280_temperature;BME280_humidity;BME280_pressure;Samples;Min_cycle;Max_cycle;Signal;HPM_P1;HPM_P2
2023/11/13 00:02:13;;;;;;;97.20;87.05;;;15.40;99.90;;;;;;4996280;28;20401;-79
2023/11/13 00:04:40;;;;;;;98.55;88.85;;;15.30;99.90;;;;;;4994790;28;20038;-79
2023/11/13 00:07:06;;;;;;;98.82;89.60;;;15.30;99.90;;;;;;4990954;28;20051;-79
2023/11/13 00:09:32;;;;;;;98.68;89.72;;;15.40;99.90;;;;;;4975740;28;20475;-78
2023/11/13 00:11:58;;;;;;;84.60;75.00;;;15.40;99.90;;;;;;4998024;28;20041;-79
2023/11/13 00:14:24;;;;;;;101.60;92.55;;;15.40;99.90;;;;;;4992323;28;20030;-78
2023/11/13 00:16:50;;;;;;;100.55;92.10;;;15.40;99.90;;;;;;4990527;28;20498;-78
2023/11/13 00:19:17;;;;;;;94.35;86.30;;;15.50;99.90;;;;;;4976519;28;20039;-78
2023/11/13 00:21:43;;;;;;;91.75;83.07;;;15.50;99.90;;;;;;4993353;28;20034;-78
2023/11/13 00:24:12;;;;;;;94.38;84.53;;;15.50;99.90;;;;;;4989815;28;20514;-79
2023/11/13 00:26:38;;;;;;;95.13;86.40;;;15.50;99.90;;;;;;4985472;28;20123;-78
2023/11/13 00:29:05;;;;;;;91.35;82.85;;;15.50;99.90;;;;;;4974225;28;20050;-78
2023/11/13 00:31:32;;;;;;;120.93;110.93;;;15.50;99.90;;;;;;4994954;28;20049;-78
2023/11/13 00:33:58;;;;;;;153.07;141.82;;;15.50;99.90;;;;;;4977667;28;20482;-79
2023/11/13 00:36:24;;;;;;;131.02;120.22;;;15.50;99.90;;;;;;4995715;28;20030;-77
2023/11/13 00:38:50;;;;;;;151.80;140.23;;;15.50;99.90;;;;;;4977394;28;20483;-78
2023/11/13 00:41:16;;;;;;;122.47;112.28;;;15.50;99.90;;;;;;4992276;28;20041;-78
2023/11/13 00:43:42;;;;;;;148.25;136.75;;;15.50;99.90;;;;;;4977630;28;20034;-78
2023/11/13 00:46:08;;;;;;;193.95;179.90;;;15.50;99.90;;;;;;4993095;28;20053;-78
2023/11/13 00:48:37;;;;;;;193.45;179.68;;;15.60;99.90;;;;;;4993449;28;20038;-78
2023/11/13 00:51:04;;;;;;;184.27;170.07;;;15.60;99.90;;;;;;4991783;28;20049;-78
2023/11/13 00:53:36;;;;;;;172.27;158.52;;;15.60;99.90;;;;;;4977904;28;20033;-78
2023/11/13 00:56:04;;;;;;;191.88;177.63;;;15.60;99.90;;;;;;4986450;28;20054;-78
2023/11/13 00:58:32;;;;;;;126.15;114.93;;;15.60;99.90;;;;;;4993566;28;20041;-78
2023/11/13 01:00:58;;;;;;;134.50;123.40;;;15.60;99.90;;;;;;4993276;28;20034;-78
2023/11/13 01:03:24;;;;;;;138.13;127.28;;;15.60;99.90;;;;;;4979417;28;20046;-78
2023/11/13 01:05:51;;;;;;;183.18;169.35;;;15.60;99.90;;;;;;4984216;28;20030;-78
2023/11/13 01:08:18;;;;;;;172.50;159.32;;;15.60;99.90;;;;;;4994002;28;20042;-77
2023/11/13 01:10:44;;;;;;;160.15;147.52;;;15.60;99.90;;;;;;4992975;28;20043;-77
2023/11/13 01:13:10;;;;;;;137.25;125.88;;;15.60;99.90;;;;;;4983293;28;20510;-77
2023/11/13 01:15:36;;;;;;;132.80;122.13;;;15.60;99.90;;;;;;4985878;28;20034;-78
2023/11/13 01:18:02;;;;;;;170.15;157.60;;;15.60;99.90;;;;;;4984196;28;20039;-78
2023/11/13 01:20:28;;;;;;;151.65;140.45;;;15.60;99.90;;;;;;4993144;28;20644;-76
2023/11/13 01:22:55;;;;;;;123.68;113.78;;;15.60;99.90;;;;;;4996307;28;20034;-78
2023/11/13 01:25:21;;;;;;;139.65;128.60;;;15.60;99.90;;;;;;4991833;28;20053;-77
2023/11/13 01:27:47;;;;;;;188.93;175.68;;;15.60;99.90;;;;;;4977229;28;20035;-78
2023/11/13 01:30:13;;;;;;;157.40;146.45;;;15.60;99.90;;;;;;4991649;28;20033;-78
2023/11/13 01:32:39;;;;;;;132.32;122.43;;;15.60;99.90;;;;;;4991626;28;20351;-78
2023/11/13 01:35:06;;;;;;;176.48;163.65;;;15.60;99.90;;;;;;4978737;28;20037;-78
2023/11/13 01:37:32;;;;;;;188.15;174.52;;;15.60;99.90;;;;;;4986910;28;20066;-78
2023/11/13 01:39:58;;;;;;;147.88;137.65;;;15.70;99.90;;;;;;4980133;28;20061;-78
2023/11/13 01:42:24;;;;;;;145.10;134.15;;;15.70;99.90;;;;;;4987839;28;20490;-77
2023/11/13 01:44:51;;;;;;;154.63;142.93;;;15.70;99.90;;;;;;4980242;28;20417;-78
2023/11/13 01:47:17;;;;;;;131.38;121.43;;;15.70;99.90;;;;;;4991439;28;20407;-78
2023/11/13 01:49:43;;;;;;;165.25;153.48;;;15.70;99.90;;;;;;4984003;28;20030;-77
2023/11/13 01:52:10;;;;;;;156.20;144.88;;;15.80;99.90;;;;;;4990646;28;20022;-78
2023/11/13 01:54:36;;;;;;;101.13;92.90;;;15.80;99.90;;;;;;4993079;28;20047;-77
2023/11/13 01:57:03;;;;;;;112.80;104.70;;;15.80;99.90;;;;;;4978337;28;20046;-78
2023/11/13 01:59:29;;;;;;;106.60;98.10;;;15.80;99.90;;;;;;4973221;28;20043;-77
2023/11/13 02:01:55;;;;;;;110.18;101.47;;;15.80;99.90;;;;;;4989181;28;20068;-78
2023/11/13 02:04:21;;;;;;;118.75;109.53;;;15.80;99.90;;;;;;4991266;28;20491;-77
2023/11/13 02:06:48;;;;;;;125.18;115.60;;;15.80;99.90;;;;;;4981275;28;20034;-78
2023/11/13 02:09:14;;;;;;;144.52;133.45;;;15.80;99.90;;;;;;4985575;28;20391;-77
2023/11/13 02:11:41;;;;;;;123.63;114.22;;;15.80;99.90;;;;;;4992194;28;20037;-78
2023/11/13 02:14:07;;;;;;;106.40;96.90;;;15.90;99.90;;;;;;4990933;28;20050;-78
2023/11/13 02:16:34;;;;;;;115.28;106.70;;;15.90;99.90;;;;;;4986656;28;20111;-78
2023/11/13 02:19:01;;;;;;;130.27;120.65;;;15.80;99.90;;;;;;4992900;28;20053;-78
2023/11/13 02:21:27;;;;;;;110.88;102.03;;;15.90;99.90;;;;;;5000999;28;20406;-77
2023/11/13 02:23:53;;;;;;;120.28;110.05;;;15.90;99.90;;;;;;4981241;28;20035;-77
2023/11/13 02:26:19;;;;;;;100.88;92.47;;;15.90;99.90;;;;;;4994805;28;20092;-77
2023/11/13 02:28:45;;;;;;;173.30;161.80;;;15.90;99.90;;;;;;4991850;28;20490;-78
2023/11/13 02:31:11;;;;;;;100.55;92.25;;;15.90;99.90;;;;;;4988983;28;20407;-78
2023/11/13 02:33:37;;;;;;;158.82;148.13;;;16.00;99.90;;;;;;4990563;28;20030;-77
2023/11/13 02:36:03;;;;;;;118.45;109.30;;;16.00;99.90;;;;;;4990987;28;20038;-77
2023/11/13 02:38:29;;;;;;;158.38;147.48;;;16.00;99.90;;;;;;4980363;28;20042;-77
2023/11/13 02:40:57;;;;;;;136.57;126.88;;;16.00;99.90;;;;;;4983636;28;20023;-77
2023/11/13 02:43:23;;;;;;;114.93;106.60;;;16.00;99.90;;;;;;4989993;28;20041;-76
2023/11/13 02:45:49;;;;;;;117.10;108.75;;;16.00;99.90;;;;;;4987578;28;20486;-77
2023/11/13 02:48:15;;;;;;;113.30;105.18;;;16.00;99.90;;;;;;4992575;28;20530;-77
2023/11/13 02:50:41;;;;;;;89.50;81.35;;;16.00;99.90;;;;;;4991370;28;20035;-77
2023/11/13 02:53:08;;;;;;;98.68;90.80;;;16.10;99.90;;;;;;4985146;28;20038;-78
2023/11/13 02:55:34;;;;;;;99.40;91.38;;;16.00;99.90;;;;;;4993687;28;20042;-78
2023/11/13 02:58:00;;;;;;;105.00;97.45;;;16.10;99.90;;;;;;4991533;28;20034;-77
2023/11/13 03:00:26;;;;;;;104.90;96.85;;;16.10;99.90;;;;;;4990348;28;20046;-78
2023/11/13 03:02:52;;;;;;;100.15;92.90;;;16.10;99.90;;;;;;4987331;28;20039;-78
2023/11/13 03:05:18;;;;;;;103.35;95.80;;;16.10;99.90;;;;;;4980614;28;20027;-77
2023/11/13 03:07:44;;;;;;;90.85;83.65;;;16.10;99.90;;;;;;4984060;28;20046;-77
2023/11/13 03:10:10;;;;;;;98.75;91.47;;;16.10;99.90;;;;;;4989906;28;20395;-77
2023/11/13 03:12:39;;;;;;;98.53;91.35;;;16.10;99.90;;;;;;4989400;28;20379;-77
2023/11/13 03:15:06;;;;;;;107.78;100.18;;;16.10;99.90;;;;;;4993888;28;20050;-77
2023/11/13 03:17:32;;;;;;;108.20;100.57;;;16.10;99.90;;;;;;4997126;28;20364;-78
2023/11/13 03:19:58;;;;;;;88.07;81.53;;;16.10;99.90;;;;;;4995223;28;20038;-78
2023/11/13 03:22:25;;;;;;;105.40;97.95;;;16.10;99.90;;;;;;4995477;28;20031;-77
2023/11/13 03:24:51;;;;;;;97.57;90.43;;;16.10;99.90;;;;;;4995446;28;20498;-77
2023/11/13 03:27:17;;;;;;;117.40;109.57;;;16.10;99.90;;;;;;4994544;28;20034;-78
2023/11/13 03:29:43;;;;;;;103.75;96.82;;;16.10;99.90;;;;;;4995958;28;20455;-78
2023/11/13 03:32:09;;;;;;;126.03;117.80;;;16.10;99.90;;;;;;4979656;28;20038;-78
2023/11/13 03:34:35;;;;;;;136.65;127.13;;;16.20;99.90;;;;;;4980132;28;20054;-78
2023/11/13 03:37:01;;;;;;;196.40;184.40;;;16.10;99.90;;;;;;4981537;28;20026;-78
2023/11/13 03:39:28;;;;;;;151.95;142.00;;;16.20;99.90;;;;;;4979438;28;20406;-78
2023/11/13 03:41:54;;;;;;;126.38;117.65;;;16.20;99.90;;;;;;4988980;28;20038;-78
2023/11/13 03:44:20;;;;;;;137.43;128.57;;;16.10;99.90;;;;;;4995320;28;20042;-77
2023/11/13 03:46:46;;;;;;;140.35;130.38;;;16.10;99.90;;;;;;4984205;28;20045;-78
2023/11/13 03:49:12;;;;;;;189.10;177.70;;;16.20;99.90;;;;;;4985959;28;20038;-77
2023/11/13 03:51:38;;;;;;;178.20;167.27;;;16.20;99.90;;;;;;4993495;28;20037;-78
2023/11/13 03:54:04;;;;;;;150.48;141.25;;;16.20;99.90;;;;;;4983311;28;20035;-78
2023/11/13 03:56:30;;;;;;;90.80;84.38;;;16.20;99.90;;;;;;4993513;28;20033;-78
2023/11/13 03:58:56;;;;;;;88.07;81.30;;;16.20;99.90;;;;;;4990348;28;20043;-78
2023/11/13 04:01:23;;;;;;;87.60;81.00;;;16.20;99.90;;;;;;4981494;28;20058;-78
2023/11/13 04:03:49;;;;;;;108.32;100.95;;;16.20;99.90;;;;;;4994552;28;20049;-76
2023/11/13 04:06:16;;;;;;;108.45;100.68;;;16.20;99.90;;;;;;4996774;28;20042;-79
2023/11/13 04:08:42;;;;;;;132.70;123.82;;;16.10;99.90;;;;;;5014576;28;20045;-78
2023/11/13 04:11:08;;;;;;;95.60;88.25;;;16.10;99.90;;;;;;4994389;28;20039;-78
2023/11/13 04:13:34;;;;;;;110.55;102.85;;;16.10;99.90;;;;;;4982604;28;20507;-78
2023/11/13 04:16:01;;;;;;;113.47;105.53;;;16.10;99.90;;;;;;4988731;28;20402;-78
2023/11/13 04:18:31;;;;;;;104.93;97.28;;;16.10;99.90;;;;;;5013120;28;20038;-78
2023/11/13 04:20:57;;;;;;;113.47;105.18;;;16.10;99.90;;;;;;4997663;28;20060;-78
2023/11/13 04:23:24;;;;;;;94.03;87.50;;;16.00;99.90;;;;;;4994873;28;20041;-77
2023/11/13 04:25:50;;;;;;;142.70;133.55;;;16.10;99.90;;;;;;4995398;28;20042;-77
2023/11/13 04:28:19;;;;;;;133.15;123.82;;;16.00;99.90;;;;;;4985545;28;20537;-78
2023/11/13 04:30:49;;;;;;;111.82;104.60;;;16.00;99.90;;;;;;4987034;28;20042;-78
2023/11/13 04:33:15;;;;;;;111.70;104.47;;;16.00;99.90;;;;;;4991773;28;20061;-78
2023/11/13 04:35:41;;;;;;;141.32;132.35;;;16.00;99.90;;;;;;4991025;28;20030;-78
2023/11/13 04:38:07;;;;;;;146.13;136.95;;;16.00;99.90;;;;;;4993372;28;20042;-78
2023/11/13 04:40:33;;;;;;;155.10;145.35;;;16.00;99.90;;;;;;4983474;28;20046;-79
2023/11/13 04:43:01;;;;;;;143.18;134.18;;;16.00;99.90;;;;;;4985699;28;20034;-78
2023/11/13 04:45:28;;;;;;;154.80;145.32;;;16.00;99.90;;;;;;4979315;28;20042;-78
2023/11/13 04:47:54;;;;;;;154.80;145.30;;;16.00;99.90;;;;;;4994988;28;20034;-77
2023/11/13 04:50:20;;;;;;;177.25;167.23;;;15.90;99.90;;;;;;4992874;28;20519;-78
2023/11/13 04:52:46;;;;;;;152.90;143.75;;;15.90;99.90;;;;;;5000635;28;20494;-78
2023/11/13 04:55:13;;;;;;;144.10;135.63;;;15.90;99.90;;;;;;4993043;28;20026;-79
2023/11/13 04:57:39;;;;;;;149.48;140.75;;;15.90;99.90;;;;;;5009685;28;20057;-78
2023/11/13 05:00:06;;;;;;;176.50;166.65;;;15.90;99.90;;;;;;4987205;28;20046;-77
2023/11/13 05:02:37;;;;;;;200.38;188.77;;;15.90;99.90;;;;;;4998313;28;20027;-78
2023/11/13 05:05:04;;;;;;;173.98;164.18;;;15.90;99.90;;;;;;4991230;28;20043;-78
2023/11/13 05:07:30;;;;;;;142.48;134.30;;;15.90;99.90;;;;;;4989173;28;21701;-71
2023/11/13 05:09:56;;;;;;;205.82;193.77;;;15.90;99.90;;;;;;4983217;28;20031;-77
2023/11/13 05:12:22;;;;;;;163.50;154.02;;;15.90;99.90;;;;;;5002251;28;20038;-78
2023/11/13 05:14:48;;;;;;;136.98;129.00;;;15.80;99.90;;;;;;4993656;28;20034;-78
2023/11/13 05:17:14;;;;;;;143.48;134.85;;;15.80;99.90;;;;;;4995418;28;20042;-77
2023/11/13 05:19:40;;;;;;;163.05;153.43;;;15.80;99.90;;;;;;4976416;28;20053;-77
2023/11/13 05:22:07;;;;;;;132.85;125.47;;;15.80;99.90;;;;;;5005397;28;20089;-78
2023/11/13 05:24:33;;;;;;;146.93;138.75;;;15.80;99.90;;;;;;4993343;28;20046;-77
2023/11/13 05:26:59;;;;;;;121.60;114.68;;;15.80;99.90;;;;;;4991837;28;20038;-77
2023/11/13 05:29:26;;;;;;;141.77;133.63;;;15.80;99.90;;;;;;4980361;28;20484;-78
2023/11/13 05:31:53;;;;;;;128.70;121.35;;;15.80;99.90;;;;;;4979651;28;20062;-77
2023/11/13 05:34:20;;;;;;;102.30;95.85;;;15.90;99.90;;;;;;4987277;28;20046;-77
2023/11/13 05:36:46;;;;;;;133.52;125.70;;;15.80;99.90;;;;;;4992774;28;20026;-77
2023/11/13 05:39:12;;;;;;;146.55;138.20;;;15.80;99.90;;;;;;4992290;28;20041;-77
2023/11/13 05:41:38;;;;;;;104.32;98.05;;;15.80;99.90;;;;;;5000659;28;20026;-77
2023/11/13 05:44:05;;;;;;;109.30;102.30;;;15.80;99.90;;;;;;4992825;28;20399;-77
2023/11/13 05:46:31;;;;;;;91.30;85.43;;;15.80;99.90;;;;;;4992164;28;20407;-77
2023/11/13 05:48:59;;;;;;;86.82;81.68;;;15.80;99.90;;;;;;4992380;28;20045;-77
2023/11/13 05:51:25;;;;;;;89.38;83.13;;;15.80;99.90;;;;;;4992248;28;20043;-77
2023/11/13 05:53:51;;;;;;;105.18;97.22;;;15.80;99.90;;;;;;4992650;28;20034;-77
2023/11/13 05:56:18;;;;;;;102.60;96.53;;;15.80;99.90;;;;;;4992691;28;20053;-78
2023/11/13 05:58:44;;;;;;;143.85;135.02;;;15.80;99.90;;;;;;4985454;28;20026;-76
2023/11/13 06:01:10;;;;;;;110.18;103.88;;;15.80;99.90;;;;;;4985020;28;20385;-77
2023/11/13 06:03:36;;;;;;;109.18;102.97;;;15.80;99.90;;;;;;4991000;28;20045;-77
2023/11/13 06:06:06;;;;;;;111.18;104.75;;;15.80;99.90;;;;;;4992203;28;20045;-77
2023/11/13 06:08:32;;;;;;;124.63;117.18;;;15.80;99.90;;;;;;4993301;28;20038;-78
2023/11/13 06:10:58;;;;;;;114.88;108.43;;;15.80;99.90;;;;;;4992792;28;20487;-78
2023/11/13 06:13:25;;;;;;;112.55;105.45;;;15.80;99.90;;;;;;4979551;28;20037;-77
2023/11/13 06:15:52;;;;;;;119.85;112.93;;;15.80;99.90;;;;;;4992503;28;20034;-77
2023/11/13 06:18:18;;;;;;;124.40;115.97;;;15.80;99.90;;;;;;4992943;28;20042;-77
2023/11/13 06:20:44;;;;;;;144.10;136.02;;;15.80;99.90;;;;;;4991043;28;20050;-77
2023/11/13 06:23:10;;;;;;;128.35;120.95;;;15.80;99.90;;;;;;4991004;28;20483;-76
2023/11/13 06:25:37;;;;;;;119.28;112.57;;;15.80;99.90;;;;;;4991086;28;20050;-77
2023/11/13 06:28:03;;;;;;;125.78;118.50;;;15.80;99.90;;;;;;4992785;28;20038;-78
2023/11/13 06:30:30;;;;;;;145.48;137.80;;;15.80;99.90;;;;;;4992151;28;20388;-78
2023/11/13 06:32:56;;;;;;;134.48;126.93;;;15.80;99.90;;;;;;4992211;28;20026;-77
2023/11/13 06:35:22;;;;;;;157.77;148.73;;;15.80;99.90;;;;;;4984445;28;20747;-76
2023/11/13 06:37:48;;;;;;;131.13;123.32;;;15.80;99.90;;;;;;5015964;28;20037;-77
2023/11/13 06:40:16;;;;;;;133.20;125.25;;;15.90;99.90;;;;;;5013447;28;20038;-78
2023/11/13 06:42:45;;;;;;;100.82;94.63;;;15.90;99.90;;;;;;4996204;28;20073;-78
2023/11/13 06:45:14;;;;;;;78.30;73.78;;;15.90;99.90;;;;;;4994764;28;20034;-77
2023/11/13 06:47:41;;;;;;;77.75;72.68;;;15.90;99.90;;;;;;4995879;28;20038;-78
2023/11/13 06:50:07;;;;;;;82.50;77.70;;;15.90;99.90;;;;;;4996092;28;20033;-77
2023/11/13 06:52:33;;;;;;;73.68;69.22;;;15.90;99.90;;;;;;4988009;28;20043;-77
2023/11/13 06:55:00;;;;;;;68.82;64.97;;;15.90;99.90;;;;;;4989077;28;20034;-77
2023/11/13 06:57:26;;;;;;;65.80;61.63;;;16.00;99.90;;;;;;4996848;28;20042;-77
2023/11/13 06:59:55;;;;;;;69.72;65.35;;;16.00;99.90;;;;;;4996331;28;20050;-76
2023/11/13 07:02:21;;;;;;;83.40;78.75;;;16.00;99.90;;;;;;4995032;28;20043;-77
2023/11/13 07:04:47;;;;;;;109.68;97.13;;;16.00;99.90;;;;;;4994436;28;20069;-77
2023/11/13 07:07:14;;;;;;;67.00;63.22;;;16.00;99.90;;;;;;4996010;28;20406;-77
2023/11/13 07:09:40;;;;;;;76.93;73.00;;;16.10;99.90;;;;;;4996566;28;20061;-76
2023/11/13 07:12:07;;;;;;;76.78;72.47;;;16.10;99.90;;;;;;4995381;28;20054;-77
2023/11/13 07:14:34;;;;;;;69.22;65.53;;;16.10;99.90;;;;;;4996445;28;20053;-76
2023/11/13 07:17:00;;;;;;;122.45;115.40;;;16.10;99.90;;;;;;4993881;28;20038;-76
2023/11/13 07:19:26;;;;;;;110.75;104.57;;;16.20;99.90;;;;;;4990100;28;20069;-77
2023/11/13 07:21:52;;;;;;;109.05;102.93;;;16.20;99.90;;;;;;4992691;28;20039;-76
2023/11/13 07:24:19;;;;;;;143.85;135.50;;;16.20;99.90;;;;;;4995153;28;20110;-78
2023/11/13 07:26:46;;;;;;;153.27;144.63;;;16.20;99.90;;;;;;4995557;28;20475;-77
2023/11/13 07:29:12;;;;;;;120.30;113.25;;;16.30;99.90;;;;;;4993919;28;20071;-77
2023/11/13 07:31:39;;;;;;;136.90;128.77;;;16.30;99.90;;;;;;4986486;28;20022;-77
2023/11/13 07:34:05;;;;;;;143.57;135.25;;;16.30;99.90;;;;;;4995437;28;20039;-77
2023/11/13 07:36:31;;;;;;;137.32;129.55;;;16.30;99.90;;;;;;4988005;28;20031;-78
2023/11/13 07:38:58;;;;;;;132.82;125.38;;;16.30;99.90;;;;;;4985581;28;20542;-77
2023/11/13 07:41:24;;;;;;;85.75;80.53;;;16.30;99.90;;;;;;4990641;28;20507;-76
2023/11/13 07:43:54;;;;;;;92.00;86.55;;;16.30;99.90;;;;;;4994537;28;20041;-69
2023/11/13 07:46:20;;;;;;;103.32;96.90;;;16.30;99.90;;;;;;4994725;28;20042;-78
2023/11/13 07:48:46;;;;;;;70.82;66.22;;;16.40;99.90;;;;;;4993720;28;20482;-78
2023/11/13 07:51:12;;;;;;;79.22;74.20;;;16.40;99.90;;;;;;4998206;28;20029;-78
2023/11/13 07:53:39;;;;;;;121.47;113.97;;;16.40;99.90;;;;;;4999000;28;20045;-79
2023/11/13 07:56:05;;;;;;;92.07;86.25;;;16.50;99.90;;;;;;4995211;28;20038;-78
2023/11/13 07:58:31;;;;;;;119.43;111.85;;;16.50;99.90;;;;;;4995120;28;20026;-79
2023/11/13 08:00:57;;;;;;;191.10;179.38;;;16.50;99.90;;;;;;4992649;28;20045;-78
2023/11/13 08:03:24;;;;;;;322.15;302.77;;;16.50;99.90;;;;;;4994697;28;20030;-78
2023/11/13 08:05:51;;;;;;;268.45;253.15;;;16.50;99.90;;;;;;4994917;28;20046;-76
2023/11/13 08:08:17;;;;;;;163.82;153.93;;;16.50;99.90;;;;;;4995430;28;20038;-78
2023/11/13 08:10:46;;;;;;;57.92;53.47;;;16.60;99.90;;;;;;4994041;28;20030;-77
2023/11/13 08:13:14;;;;;;;117.63;109.85;;;16.60;99.90;;;;;;4982135;28;20047;-78
2023/11/13 08:15:42;;;;;;;77.93;72.70;;;16.60;99.90;;;;;;4982278;28;20049;-79
2023/11/13 08:18:15;;;;;;;77.57;72.07;;;16.60;99.90;;;;;;5003751;28;20486;-78
2023/11/13 08:20:44;;;;;;;86.22;80.20;;;16.60;99.90;;;;;;4993228;28;20049;-78
2023/11/13 08:23:10;;;;;;;66.78;61.85;;;16.60;99.90;;;;;;4994664;28;20030;-78
2023/11/13 08:25:43;;;;;;;70.70;65.68;;;16.60;99.90;;;;;;4994476;28;20053;-78
2023/11/13 08:28:10;;;;;;;66.78;61.45;;;16.60;99.90;;;;;;4973884;28;20047;-78
2023/11/13 08:30:36;;;;;;;91.57;85.35;;;16.70;99.90;;;;;;4976916;28;20033;-74
2023/11/13 08:33:03;;;;;;;109.22;101.80;;;16.70;99.90;;;;;;4993852;28;20042;-74
2023/11/13 08:35:33;;;;;;;76.95;71.25;;;16.70;99.90;;;;;;4993445;28;20443;-74
2023/11/13 08:37:59;;;;;;;77.82;71.78;;;16.70;99.90;;;;;;4993817;28;20042;-74
2023/11/13 08:40:26;;;;;;;84.78;78.20;;;16.70;99.90;;;;;;4993659;28;20043;-73
2023/11/13 08:42:52;;;;;;;99.47;92.28;;;16.70;99.90;;;;;;4993993;28;20030;-73
2023/11/13 08:45:19;;;;;;;80.65;74.35;;;16.70;99.90;;;;;;4993343;28;20098;-73
2023/11/13 08:47:47;;;;;;;137.50;128.73;;;16.70;99.90;;;;;;4993905;28;20042;-73
2023/11/13 08:50:13;;;;;;;163.75;153.52;;;16.70;99.90;;;;;;4993777;28;20395;-74
2023/11/13 08:52:41;;;;;;;142.02;132.60;;;16.70;99.90;;;;;;4974677;28;20030;-73
2023/11/13 08:55:13;;;;;;;109.65;102.18;;;16.70;99.90;;;;;;4974935;28;20365;-74
2023/11/13 08:57:42;;;;;;;92.25;85.50;;;16.70;99.90;;;;;;4979212;28;20049;-74
2023/11/13 09:00:18;;;;;;;89.07;81.88;;;16.70;99.90;;;;;;4991966;28;20042;-73
2023/11/13 09:02:46;;;;;;;189.10;176.80;;;16.70;99.90;;;;;;4975016;28;20468;-74
2023/11/13 09:05:13;;;;;;;153.82;143.98;;;16.70;99.90;;;;;;4974926;28;20479;-74
2023/11/13 09:07:43;;;;;;;137.82;129.02;;;16.60;99.90;;;;;;4992384;28;20018;-74
2023/11/13 09:10:10;;;;;;;119.50;111.68;;;16.60;99.90;;;;;;4993904;28;20050;-74
2023/11/13 09:12:37;;;;;;;132.10;123.35;;;16.70;99.90;;;;;;4993359;28;20030;-74
2023/11/13 09:15:14;;;;;;;209.40;196.52;;;16.70;99.90;;;;;;4993119;28;20042;-73
2023/11/13 09:17:45;;;;;;;166.35;156.07;;;16.70;99.90;;;;;;4991919;28;20049;-74
2023/11/13 09:20:20;;;;;;;194.80;183.10;;;16.70;99.90;;;;;;4992994;28;20403;-74
2023/11/13 09:22:47;;;;;;;157.65;148.77;;;16.70;99.90;;;;;;4993374;28;20057;-74
2023/11/13 09:25:17;;;;;;;150.07;141.45;;;16.70;99.90;;;;;;4992865;28;20057;-74
2023/11/13 09:28:01;;;;;;;149.80;140.43;;;16.80;99.90;;;;;;4993943;28;20056;-74
2023/11/13 09:30:27;;;;;;;132.80;125.43;;;16.80;99.90;;;;;;4992527;28;20037;-74
2023/11/13 09:32:53;;;;;;;136.82;129.32;;;16.80;99.90;;;;;;4993502;28;20031;-73
2023/11/13 09:35:24;;;;;;;103.07;97.10;;;16.80;99.90;;;;;;4987578;28;20050;-74
2023/11/13 09:37:52;;;;;;;109.10;102.95;;;16.80;99.90;;;;;;4993027;28;20042;-73
2023/11/13 09:40:19;;;;;;;99.95;94.07;;;16.80;99.90;;;;;;4993365;28;20491;-74
2023/11/13 09:42:52;;;;;;;112.43;106.47;;;16.90;99.90;;;;;;4993596;28;20041;-74
2023/11/13 09:45:19;;;;;;;97.18;91.65;;;16.90;99.90;;;;;;4991978;28;20043;-74
2023/11/13 09:47:45;;;;;;;106.40;100.78;;;16.90;99.90;;;;;;4993405;28;20387;-74
2023/11/13 09:50:17;;;;;;;110.93;104.78;;;16.90;99.90;;;;;;4990888;28;20044;-74
2023/11/13 09:52:50;;;;;;;104.47;98.43;;;16.90;99.90;;;;;;4993106;28;20046;-74
2023/11/13 09:55:20;;;;;;;117.68;111.30;;;16.90;99.90;;;;;;4992508;28;20022;-74
2023/11/13 09:57:48;;;;;;;110.47;104.38;;;16.90;99.90;;;;;;4992695;28;20022;-74
2023/11/13 10:00:24;;;;;;;108.47;102.68;;;16.90;99.90;;;;;;4992357;28;20046;-73
2023/11/13 10:02:52;;;;;;;78.38;74.07;;;16.90;99.90;;;;;;4992678;28;20037;-74
2023/11/13 10:05:22;;;;;;;80.32;76.05;;;16.90;99.90;;;;;;4992463;28;20042;-74
2023/11/13 10:07:52;;;;;;;84.47;79.47;;;17.00;99.90;;;;;;4991923;28;20030;-73
2023/11/13 10:10:23;;;;;;;92.15;86.53;;;17.00;99.90;;;;;;4992465;28;20049;-74
2023/11/13 10:12:51;;;;;;;84.30;79.22;;;17.00;99.90;;;;;;4992166;28;20529;-74
2023/11/13 10:15:27;;;;;;;178.05;168.07;;;17.00;99.90;;;;;;4992919;28;20042;-73
2023/11/13 10:17:57;;;;;;;89.88;83.97;;;17.00;99.90;;;;;;5002125;28;20033;-73
2023/11/13 10:20:23;;;;;;;103.28;96.80;;;17.00;99.90;;;;;;4992406;28;20078;-74
2023/11/13 10:22:55;;;;;;;239.10;225.25;;;17.00;99.90;;;;;;4992122;28;20030;-73
2023/11/13 10:25:21;;;;;;;100.30;93.47;;;17.00;99.90;;;;;;4992169;28;20046;-74
2023/11/13 10:28:01;;;;;;;92.95;87.18;;;17.00;99.90;;;;;;4992091;28;20026;-74
2023/11/13 10:30:27;;;;;;;168.13;158.25;;;17.00;99.90;;;;;;4990562;28;20030;-74
2023/11/13 10:32:54;;;;;;;152.63;143.57;;;17.00;99.90;;;;;;4992544;28;20034;-74
2023/11/13 10:35:35;;;;;;;128.18;120.55;;;17.00;99.90;;;;;;4992578;28;20039;-74
2023/11/13 10:38:03;;;;;;;127.32;119.38;;;17.00;99.90;;;;;;4992735;28;20046;-74
2023/11/13 10:40:30;;;;;;;189.35;178.20;;;17.10;99.90;;;;;;4991990;28;20392;-74
2023/11/13 10:42:56;;;;;;;173.00;162.80;;;17.10;99.90;;;;;;4992565;28;20038;-73
2023/11/13 10:45:22;;;;;;;128.75;120.85;;;17.10;99.90;;;;;;4976578;28;20038;-74
2023/11/13 10:47:49;;;;;;;103.88;96.53;;;17.10;99.90;;;;;;4992131;28;20045;-73
2023/11/13 10:50:19;;;;;;;111.68;103.85;;;17.10;99.90;;;;;;4992182;28;20042;-74
2023/11/13 10:52:49;;;;;;;148.30;138.82;;;17.10;99.90;;;;;;4992605;28;20042;-74
2023/11/13 10:55:18;;;;;;;100.57;93.20;;;17.10;99.90;;;;;;4992413;28;20376;-74
2023/11/13 10:57:45;;;;;;;112.32;104.25;;;17.10;99.90;;;;;;4992222;28;20054;-74
2023/11/13 11:00:14;;;;;;;123.55;114.63;;;17.00;99.90;;;;;;4992254;28;20410;-74
2023/11/13 11:02:45;;;;;;;109.40;102.05;;;17.00;99.90;;;;;;4992638;28;20037;-74
2023/11/13 11:05:21;;;;;;;;;;;17.00;99.90;;;;;;4987506;28;20402;-73
2023/11/13 11:07:52;;;;;;;133.48;124.40;;;17.00;99.90;;;;;;4981877;28;19918;-73
2023/11/13 11:10:28;;;;;;;248.88;233.35;;;17.00;99.90;;;;;;4972928;28;20499;-74
2023/11/13 11:13:03;;;;;;;220.20;206.68;;;17.00;99.90;;;;;;5010660;28;20045;-73
2023/11/13 11:15:43;;;;;;;218.25;204.30;;;17.00;99.90;;;;;;4994797;28;20034;-74
2023/11/13 11:18:32;;;;;;;186.23;174.30;;;16.90;99.90;;;;;;4990319;28;20065;-74
2023/11/13 11:21:27;;;;;;;162.07;152.05;;;17.00;99.90;;;;;;4963547;28;20053;-74
2023/11/13 11:24:07;;;;;;;141.00;131.57;;;16.90;99.90;;;;;;4936742;29;20031;-73
2023/11/13 11:27:01;;;;;;;144.75;135.82;;;17.00;99.90;;;;;;4952677;29;20050;-74
2023/11/13 11:29:53;;;;;;;158.57;148.52;;;17.00;99.90;;;;;;4953844;29;20043;-74
2023/11/13 11:32:19;;;;;;;196.30;183.00;;;17.00;99.90;;;;;;4947419;29;20043;-74
2023/11/13 11:34:51;;;;;;;214.48;200.85;;;16.90;99.90;;;;;;4954513;29;20042;-74
2023/11/13 11:37:17;;;;;;;154.30;144.38;;;17.00;99.90;;;;;;4953855;29;20392;-74
2023/11/13 11:39:47;;;;;;;171.82;160.23;;;17.00;99.90;;;;;;4953688;29;20035;-74
2023/11/13 11:42:16;;;;;;;209.50;196.43;;;17.00;99.90;;;;;;4953417;29;20138;-74
2023/11/13 11:44:47;;;;;;;212.75;199.45;;;17.00;99.90;;;;;;4952960;29;20051;-73
2023/11/13 11:47:27;;;;;;;214.93;202.10;;;17.00;99.90;;;;;;4952519;28;20160;-74
2023/11/13 11:49:59;;;;;;;184.82;172.23;;;17.00;99.90;;;;;;4952565;28;20067;-73
2023/11/13 11:52:57;;;;;;;176.85;165.18;;;17.00;99.90;;;;;;4947484;28;20595;-74
2023/11/13 11:55:25;;;;;;;171.07;159.45;;;17.00;99.90;;;;;;4948680;29;20047;-74
2023/11/13 11:57:52;;;;;;;139.25;130.23;;;17.00;99.90;;;;;;4960382;28;20055;-74
2023/11/13 12:00:19;;;;;;;132.77;123.25;;;17.00;99.90;;;;;;4988545;28;20050;-74
2023/11/13 12:02:46;;;;;;;123.32;115.22;;;17.10;99.90;;;;;;4994167;28;20061;-74
2023/11/13 12:05:16;;;;;;;127.63;118.47;;;17.10;99.90;;;;;;4978472;28;20030;-74
2023/11/13 12:07:42;;;;;;;171.20;159.88;;;17.10;99.90;;;;;;4984788;28;20046;-74
2023/11/13 12:10:09;;;;;;;170.45;158.98;;;17.10;99.90;;;;;;4994225;28;20033;-74
2023/11/13 12:12:38;;;;;;;122.40;114.43;;;17.10;99.90;;;;;;4984282;28;20047;-74
2023/11/13 12:15:08;;;;;;;136.27;127.07;;;17.10;99.90;;;;;;4993737;28;20045;-73
2023/11/13 12:17:35;;;;;;;185.88;174.65;;;17.10;99.90;;;;;;4993982;28;20030;-74